createdAt,value
2017-04-11T00:00:45.067Z,14.82
2017-04-11T00:01:45.475Z,16.60
2017-04-11T00:02:45.846Z,16.63
2017-04-11T00:03:45.403Z,15.80
2017-04-11T00:04:45.731Z,15.67
2017-04-11T00:05:46.055Z,14.62
2017-04-11T00:06:47.135Z,15.95
2017-04-11T00:07:46.667Z,15.47
2017-04-11T00:08:47.000Z,16.12
2017-04-11T00:09:46.622Z,15.48
2017-04-11T00:10:46.163Z,14.45
2017-04-11T00:11:46.871Z,15.47
2017-04-11T00:12:46.426Z,14.40
2017-04-11T00:13:46.051Z,13.90
2017-04-11T00:14:45.839Z,14.30
2017-04-11T00:15:45.392Z,14.02
2017-04-11T00:16:45.678Z,13.60
2017-04-11T00:17:45.211Z,14.95
2017-04-11T00:18:44.755Z,13.67
2017-04-11T00:19:44.376Z,12.45
2017-04-11T00:20:44.340Z,14.52
2017-04-11T00:21:44.215Z,13.50
2017-04-11T00:22:43.789Z,12.55
2017-04-11T00:23:43.503Z,13.58
2017-04-11T00:24:43.826Z,13.87
2017-04-11T00:25:43.783Z,12.78
2017-04-11T00:26:43.349Z,12.78
2017-04-11T00:27:43.039Z,13.18
2017-04-11T00:28:42.595Z,12.50
2017-04-11T00:29:42.992Z,12.03
2017-04-11T00:30:43.283Z,12.47
2017-04-11T00:31:42.864Z,13.65
2017-04-11T00:32:42.526Z,12.02
2017-04-11T00:33:42.930Z,12.60
2017-04-11T00:34:42.559Z,12.70
2017-04-11T00:35:42.892Z,13.02
2017-04-11T00:36:42.643Z,12.15
2017-04-11T00:37:42.207Z,13.50
2017-04-11T00:38:41.791Z,12.35
2017-04-11T00:39:41.563Z,11.77
2017-04-11T00:40:42.069Z,12.50
2017-04-11T00:41:41.623Z,11.73
2017-04-11T00:42:41.305Z,12.42
2017-04-11T00:43:40.887Z,12.93
2017-04-11T00:44:41.275Z,12.00
2017-04-11T00:45:40.820Z,12.82
2017-04-11T00:46:40.376Z,12.03
2017-04-11T00:47:40.272Z,12.33
2017-04-11T00:48:40.283Z,11.53
2017-04-11T00:49:39.815Z,11.30
2017-04-11T00:50:39.388Z,11.42
2017-04-11T00:51:39.754Z,11.73
2017-04-11T00:52:39.307Z,13.22
2017-04-11T00:53:39.023Z,12.82
2017-04-11T00:54:38.565Z,11.18
2017-04-11T00:55:38.115Z,11.80
2017-04-11T00:56:38.002Z,11.87
2017-04-11T00:57:38.276Z,10.95
2017-04-11T00:58:38.507Z,11.73
2017-04-11T00:59:38.069Z,11.10
2017-04-11T01:00:37.626Z,11.05
2017-04-11T01:01:38.022Z,12.03
2017-04-11T01:02:37.829Z,12.52
2017-04-11T01:03:37.389Z,11.25
2017-04-11T01:04:36.935Z,11.87
2017-04-11T01:05:37.264Z,11.48
2017-04-11T01:06:37.607Z,10.75
2017-04-11T01:07:37.533Z,10.92
2017-04-11T01:08:37.099Z,11.57
2017-04-11T01:09:36.760Z,11.25
2017-04-11T01:10:37.040Z,11.70
2017-04-11T01:11:36.595Z,10.68
2017-04-11T01:12:36.284Z,11.55
2017-04-11T01:13:36.788Z,11.57
2017-04-11T01:14:37.060Z,11.75
2017-04-11T01:15:36.688Z,12.20
2017-04-11T01:16:36.232Z,12.12
2017-04-11T01:17:35.885Z,10.42
2017-04-11T01:18:36.199Z,12.02
2017-04-11T01:19:35.739Z,11.35
2017-04-11T01:20:35.280Z,11.43
2017-04-11T01:21:34.960Z,11.27
2017-04-11T01:22:34.507Z,11.58
2017-04-11T01:23:34.808Z,11.32
2017-04-11T01:24:34.400Z,11.25
2017-04-11T01:25:33.979Z,11.77
2017-04-11T01:26:33.555Z,12.38
2017-04-11T01:27:33.591Z,11.28
2017-04-11T01:28:33.135Z,10.42
2017-04-11T01:29:33.439Z,10.70
2017-04-11T01:30:33.735Z,10.75
2017-04-11T01:31:33.352Z,10.30
2017-04-11T01:32:33.834Z,11.38
2017-04-11T01:33:33.419Z,11.05
2017-04-11T01:34:33.008Z,10.93
2017-04-11T01:35:32.830Z,11.93
2017-04-11T01:36:33.019Z,11.58
2017-04-11T01:37:32.567Z,10.20
2017-04-11T01:38:32.967Z,11.30
2017-04-11T01:39:32.549Z,11.38
2017-04-11T01:40:32.231Z,11.53
2017-04-11T01:41:32.506Z,10.78
2017-04-11T01:42:32.839Z,11.10
2017-04-11T01:43:32.440Z,11.47
2017-04-11T01:44:32.105Z,11.30
2017-04-11T01:45:31.888Z,10.78
2017-04-11T01:46:31.435Z,10.25
2017-04-11T01:47:30.979Z,10.48
2017-04-11T01:48:30.509Z,11.68
2017-04-11T01:49:30.995Z,10.20
2017-04-11T01:50:31.507Z,10.27
2017-04-11T01:51:31.083Z,10.10
2017-04-11T01:52:30.642Z,10.83
2017-04-11T01:53:31.160Z,11.53
2017-04-11T01:54:31.447Z,10.85
2017-04-11T01:55:31.134Z,11.17
2017-04-11T01:56:30.668Z,12.52
2017-04-11T01:57:30.977Z,10.37
2017-04-11T01:58:31.603Z,10.40
2017-04-11T01:59:31.878Z,11.70
2017-04-11T02:00:31.431Z,10.97
2017-04-11T02:01:31.036Z,11.18
2017-04-11T02:02:30.584Z,10.33
2017-04-11T02:03:30.252Z,11.53
2017-04-11T02:04:29.835Z,10.75
2017-04-11T02:05:29.436Z,9.93
2017-04-11T02:06:29.126Z,10.57
2017-04-11T02:07:29.019Z,10.73
2017-04-11T02:08:28.547Z,10.90
2017-04-11T02:09:28.120Z,10.25
2017-04-11T02:10:28.198Z,10.62
2017-04-11T02:11:28.888Z,11.35
2017-04-11T02:12:29.142Z,10.47
2017-04-11T02:13:29.448Z,11.12
2017-04-11T02:14:29.744Z,10.83
2017-04-11T02:15:29.711Z,10.55
2017-04-11T02:16:29.255Z,10.78
2017-04-11T02:17:28.819Z,11.02
2017-04-11T02:18:29.132Z,11.10
2017-04-11T02:19:28.748Z,10.48
2017-04-11T02:20:28.311Z,10.82
2017-04-11T02:21:28.007Z,10.70
2017-04-11T02:22:27.582Z,12.52
2017-04-11T02:23:27.395Z,9.48
2017-04-11T02:24:27.643Z,10.58
2017-04-11T02:25:27.244Z,10.07
2017-04-11T02:26:26.803Z,10.03
2017-04-11T02:27:26.358Z,10.15
2017-04-11T02:28:25.939Z,10.33
2017-04-11T02:29:25.583Z,11.72
2017-04-11T02:30:25.930Z,11.07
2017-04-11T02:31:25.467Z,10.65
2017-04-11T02:32:25.091Z,10.80
2017-04-11T02:33:25.050Z,9.43
2017-04-11T02:34:24.979Z,10.12
2017-04-11T02:35:24.900Z,10.42
2017-04-11T02:36:24.471Z,9.73
2017-04-11T02:37:24.187Z,10.02
2017-04-11T02:38:23.764Z,9.48
2017-04-11T02:39:23.295Z,10.13
2017-04-11T02:40:23.615Z,9.70
2017-04-11T02:41:23.923Z,9.65
2017-04-11T02:42:24.155Z,9.23
2017-04-11T02:43:24.459Z,9.28
2017-04-11T02:44:25.163Z,10.68
2017-04-11T02:45:24.807Z,9.98
2017-04-11T02:46:24.690Z,9.42
2017-04-11T02:47:25.295Z,10.57
2017-04-11T02:48:24.839Z,10.25
2017-04-11T02:49:24.542Z,11.07
2017-04-11T02:50:24.107Z,10.48
2017-04-11T02:51:24.558Z,10.57
2017-04-11T02:52:24.168Z,9.70
2017-04-11T02:53:23.967Z,10.57
2017-04-11T02:54:23.552Z,9.67
2017-04-11T02:55:23.088Z,10.07
2017-04-11T02:56:22.627Z,10.02
2017-04-11T02:57:22.905Z,9.60
2017-04-11T02:58:22.635Z,10.07
2017-04-11T02:59:23.035Z,9.72
2017-04-11T03:00:23.267Z,9.42
2017-04-11T03:01:23.894Z,9.95
2017-04-11T03:02:23.476Z,10.10
2017-04-11T03:03:23.871Z,10.17
2017-04-11T03:04:23.468Z,9.42
2017-04-11T03:05:23.446Z,10.08
2017-04-11T03:06:23.141Z,9.28
2017-04-11T03:07:22.672Z,9.30
2017-04-11T03:08:22.236Z,9.22
2017-04-11T03:09:21.809Z,9.13
2017-04-11T03:10:22.392Z,9.15
2017-04-11T03:11:22.311Z,9.50
2017-04-11T03:12:22.596Z,9.22
2017-04-11T03:13:22.140Z,8.97
2017-04-11T03:14:22.886Z,9.73
2017-04-11T03:15:22.462Z,9.03
2017-04-11T03:16:22.750Z,8.92
2017-04-11T03:17:22.563Z,9.43
2017-04-11T03:18:22.901Z,9.77
2017-04-11T03:19:22.477Z,10.33
2017-04-11T03:20:23.311Z,9.85
2017-04-11T03:21:23.615Z,10.03
2017-04-11T03:22:23.927Z,8.83
2017-04-11T03:23:24.385Z,9.25
2017-04-11T03:24:23.963Z,9.17
2017-04-11T03:25:23.516Z,9.68
2017-04-11T03:26:23.081Z,10.05
2017-04-11T03:27:24.062Z,8.95
2017-04-11T03:28:24.335Z,8.78
2017-04-11T03:29:23.983Z,9.20
2017-04-11T03:30:23.530Z,8.77
2017-04-11T03:31:23.124Z,9.45
2017-04-11T03:32:22.671Z,8.90
2017-04-11T03:33:23.115Z,9.40
2017-04-11T03:34:23.635Z,9.25
2017-04-11T03:35:23.167Z,9.53
2017-04-11T03:36:22.743Z,9.17
2017-04-11T03:37:22.415Z,10.47
2017-04-11T03:38:22.816Z,9.27
2017-04-11T03:39:22.428Z,8.87
2017-04-11T03:40:22.708Z,9.38
2017-04-11T03:41:22.271Z,9.50
2017-04-11T03:42:21.803Z,9.60
2017-04-11T03:43:21.976Z,8.60
2017-04-11T03:44:21.581Z,9.03
2017-04-11T03:45:21.915Z,9.47
2017-04-11T03:46:21.481Z,8.67
2017-04-11T03:47:21.028Z,8.43
2017-04-11T03:48:21.443Z,9.10
2017-04-11T03:49:21.956Z,9.35
2017-04-11T03:50:21.623Z,9.35
2017-04-11T03:51:21.142Z,9.77
2017-04-11T03:52:20.683Z,9.27
2017-04-11T03:53:20.950Z,8.62
2017-04-11T03:54:20.728Z,8.50
2017-04-11T03:55:21.822Z,8.77
2017-04-11T03:56:22.247Z,8.47
2017-04-11T03:57:22.516Z,9.02
2017-04-11T03:58:22.198Z,8.52
2017-04-11T03:59:21.762Z,8.53
2017-04-11T04:00:22.178Z,8.48
2017-04-11T04:01:22.391Z,8.33
2017-04-11T04:02:22.725Z,8.50
2017-04-11T04:03:22.309Z,9.07
2017-04-11T04:04:21.951Z,9.43
2017-04-11T04:05:21.863Z,8.98
2017-04-11T04:06:21.408Z,8.90
2017-04-11T04:07:20.939Z,8.40
2017-04-11T04:08:20.490Z,8.67
2017-04-11T04:09:20.810Z,9.07
2017-04-11T04:10:21.090Z,8.67
2017-04-11T04:11:20.627Z,8.17
2017-04-11T04:12:21.014Z,9.23
2017-04-11T04:13:20.554Z,9.40
2017-04-11T04:14:20.111Z,9.08
2017-04-11T04:15:20.427Z,8.10
2017-04-11T04:16:20.854Z,8.83
2017-04-11T04:17:21.167Z,9.33
2017-04-11T04:18:21.515Z,8.05
2017-04-11T04:19:21.055Z,8.65
2017-04-11T04:20:21.090Z,9.30
2017-04-11T04:21:20.632Z,8.25
2017-04-11T04:22:20.540Z,8.67
2017-04-11T04:23:20.058Z,8.28
2017-04-11T04:24:19.817Z,8.12
2017-04-11T04:25:19.363Z,8.37
2017-04-11T04:26:18.948Z,7.90
2017-04-11T04:27:18.554Z,8.60
2017-04-11T04:28:18.091Z,8.35
2017-04-11T04:29:18.435Z,7.90
2017-04-11T04:30:18.023Z,7.90
2017-04-11T04:31:17.667Z,8.67
2017-04-11T04:32:17.832Z,8.48
2017-04-11T04:33:17.540Z,8.07
2017-04-11T04:34:17.086Z,7.50
2017-04-11T04:35:17.371Z,7.77
2017-04-11T04:36:17.091Z,7.70
2017-04-11T04:37:16.783Z,8.67
2017-04-11T04:38:16.363Z,7.22
2017-04-11T04:39:16.275Z,7.55
2017-04-11T04:40:15.819Z,7.88
2017-04-11T04:41:16.539Z,7.63
2017-04-11T04:42:16.842Z,7.88
2017-04-11T04:43:16.410Z,7.50
2017-04-11T04:44:15.944Z,7.80
2017-04-11T04:45:16.240Z,8.60
2017-04-11T04:46:15.967Z,7.98
2017-04-11T04:47:16.239Z,9.08
2017-04-11T04:48:15.991Z,7.63
2017-04-11T04:49:15.704Z,7.17
2017-04-11T04:50:15.246Z,7.87
2017-04-11T04:51:14.858Z,7.52
2017-04-11T04:52:14.660Z,6.50
2017-04-11T04:53:14.199Z,6.30
2017-04-11T04:54:13.979Z,6.47
2017-04-11T04:55:14.263Z,6.90
2017-04-11T04:56:14.061Z,7.07
2017-04-11T04:57:13.768Z,8.07
2017-04-11T04:58:13.335Z,7.63
2017-04-11T04:59:13.021Z,9.52
2017-04-11T05:00:12.983Z,8.10
2017-04-11T05:01:13.663Z,8.12
2017-04-11T05:02:13.256Z,8.03
2017-04-11T05:03:12.976Z,8.05
2017-04-11T05:04:12.542Z,7.22
2017-04-11T05:05:12.096Z,8.50
2017-04-11T05:06:12.451Z,7.38
2017-04-11T05:07:12.001Z,7.75
2017-04-11T05:08:11.585Z,6.67
2017-04-11T05:09:11.379Z,7.73
2017-04-11T05:10:10.950Z,7.88
2017-04-11T05:11:10.520Z,8.72
2017-04-11T05:12:11.092Z,7.37
2017-04-11T05:13:10.652Z,7.63
2017-04-11T05:14:10.221Z,7.32
2017-04-11T05:15:10.487Z,8.13
2017-04-11T05:16:09.999Z,7.37
2017-04-11T05:17:09.540Z,6.93
2017-04-11T05:18:09.854Z,7.17
2017-04-11T05:19:09.437Z,8.45
2017-04-11T05:20:09.744Z,8.30
2017-04-11T05:21:09.412Z,8.42
2017-04-11T05:22:08.961Z,7.28
2017-04-11T05:23:09.441Z,7.92
2017-04-11T05:24:08.999Z,8.58
2017-04-11T05:25:08.624Z,7.17
2017-04-11T05:26:08.213Z,8.08
2017-04-11T05:27:09.086Z,7.82
2017-04-11T05:28:10.014Z,8.12
2017-04-11T05:29:11.182Z,7.80
2017-04-11T05:30:12.327Z,8.07
2017-04-11T05:31:13.398Z,8.00
2017-04-11T05:32:14.693Z,7.37
2017-04-11T05:33:16.466Z,8.93
2017-04-11T05:34:17.984Z,7.83
2017-04-11T05:35:19.051Z,6.98
2017-04-11T05:36:20.511Z,7.52
2017-04-11T05:37:20.225Z,8.05
2017-04-11T05:38:19.803Z,7.63
2017-04-11T05:39:19.400Z,7.23
2017-04-11T05:40:18.946Z,8.17
2017-04-11T05:41:18.514Z,8.25
2017-04-11T05:42:18.080Z,7.12
2017-04-11T05:43:17.634Z,7.50
2017-04-11T05:44:17.586Z,8.40
2017-04-11T05:45:17.225Z,7.03
2017-04-11T05:46:16.811Z,8.03
2017-04-11T05:47:17.071Z,7.10
2017-04-11T05:48:16.632Z,7.88
2017-04-11T05:49:16.314Z,8.30
2017-04-11T05:50:15.863Z,8.57
2017-04-11T05:51:15.430Z,7.45
2017-04-11T05:52:14.945Z,8.52
2017-04-11T05:53:14.494Z,8.32
2017-04-11T05:54:14.112Z,7.60
2017-04-11T05:55:13.766Z,7.70
2017-04-11T05:56:13.373Z,8.48
2017-04-11T05:57:12.952Z,7.33
2017-04-11T05:58:12.608Z,7.33
2017-04-11T05:59:12.155Z,7.25
2017-04-11T06:00:12.158Z,9.32
2017-04-11T06:01:11.726Z,7.43
2017-04-11T06:02:11.387Z,7.17
2017-04-11T06:03:10.939Z,6.75
2017-04-11T06:04:10.484Z,7.55
2017-04-11T06:05:10.792Z,6.97
2017-04-11T06:06:10.397Z,6.93
2017-04-11T06:07:10.143Z,7.62
2017-04-11T06:08:09.688Z,7.28
2017-04-11T06:09:09.235Z,6.92
2017-04-11T06:10:08.795Z,6.02
2017-04-11T06:11:08.384Z,6.73
2017-04-11T06:12:07.929Z,7.18
2017-04-11T06:13:07.501Z,6.50
2017-04-11T06:14:07.028Z,8.53
2017-04-11T06:15:07.479Z,7.10
2017-04-11T06:16:07.005Z,7.72
2017-04-11T06:17:06.888Z,6.18
2017-04-11T06:18:06.551Z,6.77
2017-04-11T06:19:06.132Z,5.60
2017-04-11T06:20:06.185Z,5.73
2017-04-11T06:21:05.719Z,5.92
2017-04-11T06:22:05.264Z,7.18
2017-04-11T06:23:04.884Z,5.77
2017-04-11T06:24:04.590Z,6.58
2017-04-11T06:25:04.168Z,5.20
2017-04-11T06:26:03.832Z,6.37
2017-04-11T06:27:03.356Z,5.83
2017-04-11T06:28:02.990Z,5.58
2017-04-11T06:29:03.799Z,5.35
2017-04-11T06:30:03.366Z,6.52
2017-04-11T06:31:02.891Z,6.05
2017-04-11T06:32:02.469Z,5.55
2017-04-11T06:33:02.565Z,5.40
2017-04-11T06:34:02.168Z,5.85
2017-04-11T06:35:01.808Z,5.78
2017-04-11T06:36:01.399Z,6.30
2017-04-11T06:37:00.938Z,5.58
2017-04-11T06:38:00.591Z,4.98
2017-04-11T06:39:00.548Z,5.63
2017-04-11T06:40:00.739Z,5.62
2017-04-11T06:41:00.312Z,5.72
2017-04-11T06:42:00.537Z,6.83
2017-04-11T06:43:00.120Z,5.75
2017-04-11T06:43:59.696Z,5.70
2017-04-11T06:44:59.305Z,6.02
2017-04-11T06:45:58.879Z,5.40
2017-04-11T06:46:58.434Z,6.05
2017-04-11T06:47:57.959Z,5.52
2017-04-11T06:48:57.519Z,5.27
2017-04-11T06:49:57.095Z,5.77
2017-04-11T06:50:56.707Z,5.00
2017-04-11T06:51:56.313Z,5.77
2017-04-11T06:52:55.884Z,5.25
2017-04-11T06:53:55.516Z,5.80
2017-04-11T06:54:55.055Z,6.33
2017-04-11T06:55:54.711Z,5.78
2017-04-11T06:56:54.584Z,5.28
2017-04-11T06:57:54.166Z,5.12
2017-04-11T06:58:53.685Z,5.53
2017-04-11T06:59:53.329Z,5.22
2017-04-11T07:00:52.901Z,5.05
2017-04-11T07:01:52.416Z,5.15
2017-04-11T07:02:55.836Z,5.05
2017-04-11T07:03:55.418Z,5.50
2017-04-11T07:04:55.823Z,5.53
2017-04-11T07:05:56.048Z,5.22
2017-04-11T07:06:55.787Z,5.32
2017-04-11T07:07:55.415Z,5.77
2017-04-11T07:08:54.985Z,4.55
2017-04-11T07:09:54.579Z,5.45
2017-04-11T07:10:54.141Z,5.45
2017-04-11T07:11:53.693Z,5.53
2017-04-11T07:12:53.309Z,5.12
2017-04-11T07:13:52.878Z,5.67
2017-04-11T07:14:52.484Z,4.90
2017-04-11T07:15:52.161Z,5.48
2017-04-11T07:16:51.767Z,5.37
2017-04-11T07:17:52.290Z,4.72
2017-04-11T07:18:52.728Z,5.85
2017-04-11T07:19:53.406Z,6.10
2017-04-11T07:20:52.976Z,5.52
2017-04-11T07:21:53.282Z,4.92
2017-04-11T07:22:52.916Z,5.52
2017-04-11T07:23:52.448Z,5.85
2017-04-11T07:24:53.145Z,4.98
2017-04-11T07:25:52.911Z,6.00
2017-04-11T07:26:52.513Z,5.52
2017-04-11T07:27:52.084Z,5.35
2017-04-11T07:28:51.651Z,5.13
2017-04-11T07:29:51.418Z,5.80
2017-04-11T07:30:50.996Z,5.20
2017-04-11T07:31:50.627Z,5.17
2017-04-11T07:32:50.907Z,5.37
2017-04-11T07:33:50.618Z,6.00
2017-04-11T07:34:50.202Z,5.35
2017-04-11T07:35:49.841Z,5.92
2017-04-11T07:36:49.533Z,5.58
2017-04-11T07:37:49.139Z,5.65
2017-04-11T07:38:48.730Z,5.55
2017-04-11T07:39:48.431Z,6.12
2017-04-11T07:40:47.985Z,5.22
2017-04-11T07:41:47.523Z,5.10
2017-04-11T07:42:47.087Z,5.52
2017-04-11T07:43:46.684Z,5.48
2017-04-11T07:44:46.231Z,5.77
2017-04-11T07:45:45.812Z,6.25
2017-04-11T07:46:45.339Z,6.40
2017-04-11T07:47:44.900Z,5.62
2017-04-11T07:48:44.620Z,5.92
2017-04-11T07:49:44.176Z,6.20
2017-04-11T07:50:43.828Z,5.45
2017-04-11T07:51:43.376Z,7.15
2017-04-11T07:52:42.926Z,6.27
2017-04-11T07:53:43.214Z,5.93
2017-04-11T07:54:42.830Z,5.12
2017-04-11T07:55:42.437Z,5.30
2017-04-11T07:56:42.122Z,6.23
2017-04-11T07:57:41.700Z,5.42
2017-04-11T07:58:41.300Z,5.35
2017-04-11T07:59:40.913Z,6.23
2017-04-11T08:00:40.483Z,5.10
2017-04-11T08:01:40.033Z,5.30
2017-04-11T08:02:39.975Z,5.23
2017-04-11T08:03:39.979Z,4.75
2017-04-11T08:04:39.479Z,5.08
2017-04-11T08:05:39.160Z,5.12
2017-04-11T08:06:38.729Z,5.22
2017-04-11T08:07:38.304Z,4.55
2017-04-11T08:08:37.991Z,5.50
2017-04-11T08:09:37.510Z,5.75
2017-04-11T08:10:37.073Z,5.47
2017-04-11T08:11:36.647Z,5.97
2017-04-11T08:12:36.356Z,5.95
2017-04-11T08:13:36.240Z,6.15
2017-04-11T08:14:36.027Z,4.65
2017-04-11T08:15:36.316Z,5.87
2017-04-11T08:16:35.908Z,5.78
2017-04-11T08:17:36.147Z,5.50
2017-04-11T08:18:36.500Z,5.65
2017-04-11T08:19:36.119Z,5.62
2017-04-11T08:20:35.668Z,5.30
2017-04-11T08:21:36.073Z,5.32
2017-04-11T08:22:36.716Z,5.57
2017-04-11T08:23:36.292Z,7.27
2017-04-11T08:24:36.076Z,6.37
2017-04-11T08:25:35.620Z,5.53
2017-04-11T08:26:35.289Z,6.35
2017-04-11T08:27:35.609Z,6.13
2017-04-11T08:28:36.115Z,6.10
2017-04-11T08:29:36.544Z,6.02
2017-04-11T08:30:36.235Z,5.23
2017-04-11T08:31:35.766Z,5.60
2017-04-11T08:32:35.320Z,6.42
2017-04-11T08:33:34.877Z,5.25
2017-04-11T08:34:35.127Z,5.92
2017-04-11T08:35:34.778Z,5.12
2017-04-11T08:36:34.303Z,5.80
2017-04-11T08:37:33.899Z,5.68
2017-04-11T08:38:33.587Z,6.07
2017-04-11T08:39:33.171Z,5.68
2017-04-11T08:40:32.859Z,5.48
2017-04-11T08:41:32.813Z,6.43
2017-04-11T08:42:32.432Z,5.37
2017-04-11T08:43:32.004Z,5.78
2017-04-11T08:44:31.602Z,6.65
2017-04-11T08:45:31.267Z,6.07
2017-04-11T08:46:30.880Z,6.05
2017-04-11T08:47:30.423Z,6.15
2017-04-11T08:48:29.997Z,5.75
2017-04-11T08:49:29.543Z,5.92
2017-04-11T08:50:29.100Z,6.03
2017-04-11T08:51:28.668Z,7.37
2017-04-11T08:52:28.196Z,6.13
2017-04-11T08:53:27.749Z,6.07
2017-04-11T08:54:27.348Z,6.53
2017-04-11T08:55:27.940Z,7.38
2017-04-11T08:56:28.199Z,6.25
2017-04-11T08:57:27.782Z,6.60
2017-04-11T08:58:27.721Z,6.83
2017-04-11T08:59:27.312Z,6.48
2017-04-11T09:00:26.917Z,6.75
2017-04-11T09:01:26.495Z,5.72
2017-04-11T09:02:26.032Z,6.95
2017-04-11T09:03:26.388Z,6.37
2017-04-11T09:04:26.011Z,6.98
2017-04-11T09:05:25.532Z,6.12
2017-04-11T09:06:25.845Z,6.52
2017-04-11T09:07:25.491Z,6.37
2017-04-11T09:08:25.082Z,6.25
2017-04-11T09:09:24.747Z,6.68
2017-04-11T09:10:25.056Z,5.30
2017-04-11T09:11:24.585Z,6.72
2017-04-11T09:12:24.227Z,6.03
2017-04-11T09:13:23.999Z,6.35
2017-04-11T09:14:23.886Z,6.47
2017-04-11T09:15:24.288Z,6.85
2017-04-11T09:16:24.644Z,5.67
2017-04-11T09:17:24.250Z,6.20
2017-04-11T09:18:23.836Z,5.60
2017-04-11T09:19:23.662Z,5.27
2017-04-11T09:20:23.325Z,5.70
2017-04-11T09:21:23.579Z,5.50
2017-04-11T09:22:23.944Z,5.12
2017-04-11T09:23:23.471Z,5.92
2017-04-11T09:24:23.063Z,5.33
2017-04-11T09:25:22.733Z,4.62
2017-04-11T09:26:22.335Z,4.80
2017-04-11T09:27:21.892Z,5.45
2017-04-11T09:28:21.452Z,5.15
2017-04-11T09:29:21.084Z,4.73
2017-04-11T09:30:20.636Z,5.68
2017-04-11T09:31:20.252Z,5.43
2017-04-11T09:32:19.911Z,5.35
2017-04-11T09:33:19.444Z,5.30
2017-04-11T09:34:19.192Z,4.65
2017-04-11T09:35:18.744Z,5.20
2017-04-11T09:36:18.580Z,4.77
2017-04-11T09:37:18.127Z,4.88
2017-04-11T09:38:17.765Z,4.97
2017-04-11T09:39:17.337Z,5.30
2017-04-11T09:40:17.593Z,4.48
2017-04-11T09:41:17.130Z,4.45
2017-04-11T09:42:16.697Z,5.60
2017-04-11T09:43:16.275Z,4.73
2017-04-11T09:44:16.187Z,4.18
2017-04-11T09:45:15.790Z,4.95
2017-04-11T09:46:15.345Z,4.90
2017-04-11T09:47:14.898Z,4.73
2017-04-11T09:48:14.841Z,4.88
2017-04-11T09:49:14.875Z,5.47
2017-04-11T09:50:14.445Z,5.22
2017-04-11T09:51:14.712Z,4.90
2017-04-11T09:52:14.459Z,5.17
2017-04-11T09:53:14.036Z,5.82
2017-04-11T09:54:13.694Z,5.88
2017-04-11T09:55:13.351Z,5.95
2017-04-11T09:56:12.964Z,5.65
2017-04-11T09:57:12.500Z,5.50
2017-04-11T09:58:12.095Z,6.35
2017-04-11T09:59:11.800Z,5.78
2017-04-11T10:00:11.695Z,5.90
2017-04-11T10:01:11.288Z,6.42
2017-04-11T10:02:11.614Z,5.58
2017-04-11T10:03:11.880Z,5.68
2017-04-11T10:04:11.573Z,5.47
2017-04-11T10:05:11.467Z,5.40
2017-04-11T10:06:11.155Z,4.88
2017-04-11T10:07:11.465Z,6.07
2017-04-11T10:08:11.839Z,5.67
2017-04-11T10:09:11.796Z,5.55
2017-04-11T10:10:12.101Z,5.93
2017-04-11T10:11:13.280Z,5.12
2017-04-11T10:12:13.784Z,6.42
2017-04-11T10:13:13.639Z,4.88
2017-04-11T10:14:13.655Z,6.03
2017-04-11T10:15:14.165Z,6.70
2017-04-11T10:16:13.726Z,5.88
2017-04-11T10:17:14.150Z,6.45
2017-04-11T10:18:15.136Z,6.62
2017-04-11T10:19:15.506Z,6.92
2017-04-11T10:20:15.088Z,6.28
2017-04-11T10:21:14.669Z,5.90
2017-04-11T10:22:14.254Z,6.70
2017-04-11T10:23:14.568Z,5.40
2017-04-11T10:24:14.137Z,5.90
2017-04-11T10:25:14.425Z,5.45
2017-04-11T10:26:14.415Z,6.18
2017-04-11T10:27:14.053Z,7.02
2017-04-11T10:28:14.342Z,6.35
2017-04-11T10:29:13.961Z,7.13
2017-04-11T10:30:13.602Z,6.72
2017-04-11T10:31:14.124Z,6.73
2017-04-11T10:32:13.692Z,8.05
2017-04-11T10:33:14.011Z,6.47
2017-04-11T10:34:14.605Z,6.52
2017-04-11T10:35:14.152Z,6.37
2017-04-11T10:36:14.549Z,7.47
2017-04-11T10:37:14.929Z,8.22
2017-04-11T10:38:15.211Z,7.27
2017-04-11T10:39:14.949Z,7.75
2017-04-11T10:40:14.528Z,7.88
2017-04-11T10:41:14.072Z,7.17
2017-04-11T10:42:14.412Z,7.07
2017-04-11T10:43:13.963Z,7.17
2017-04-11T10:44:13.525Z,6.77
2017-04-11T10:45:13.103Z,7.47
2017-04-11T10:46:12.780Z,7.88
2017-04-11T10:47:13.065Z,7.02
2017-04-11T10:48:13.421Z,7.07
2017-04-11T10:49:13.001Z,7.38
2017-04-11T10:50:13.300Z,6.45
2017-04-11T10:51:13.485Z,6.87
2017-04-11T10:52:13.171Z,7.85
2017-04-11T10:53:12.828Z,6.87
2017-04-11T10:54:13.167Z,7.70
2017-04-11T10:55:13.868Z,6.48
2017-04-11T10:56:13.763Z,6.35
2017-04-11T10:57:13.332Z,6.43
2017-04-11T10:58:13.007Z,6.45
2017-04-11T10:59:12.651Z,7.13
2017-04-11T11:00:12.199Z,6.92
2017-04-11T11:01:11.788Z,6.55
2017-04-11T11:02:11.737Z,6.82
2017-04-11T11:03:11.553Z,7.05
2017-04-11T11:04:11.116Z,6.28
2017-04-11T11:05:10.703Z,6.35
2017-04-11T11:06:10.387Z,7.43
2017-04-11T11:07:10.004Z,7.53
2017-04-11T11:08:10.404Z,6.77
2017-04-11T11:09:09.950Z,7.28
2017-04-11T11:10:09.751Z,7.12
2017-04-11T11:11:09.735Z,6.85
2017-04-11T11:12:09.286Z,6.73
2017-04-11T11:13:09.731Z,7.03
2017-04-11T11:14:09.613Z,6.32
2017-04-11T11:15:10.085Z,6.05
2017-04-11T11:16:09.654Z,5.83
2017-04-11T11:17:09.272Z,5.57
2017-04-11T11:18:08.848Z,5.60
2017-04-11T11:19:08.455Z,5.73
2017-04-11T11:20:08.620Z,6.33
2017-04-11T11:21:08.923Z,6.47
2017-04-11T11:22:08.537Z,7.43
2017-04-11T11:23:08.934Z,7.92
2017-04-11T11:24:08.512Z,6.63
2017-04-11T11:25:08.284Z,6.48
2017-04-11T11:26:07.928Z,6.48
2017-04-11T11:27:07.474Z,6.78
2017-04-11T11:28:07.861Z,6.63
2017-04-11T11:29:08.521Z,6.68
2017-04-11T11:30:08.119Z,6.52
2017-04-11T11:31:07.743Z,6.52
2017-04-11T11:32:07.416Z,5.57
2017-04-11T11:33:07.061Z,6.33
2017-04-11T11:34:06.654Z,6.92
2017-04-11T11:35:06.332Z,6.15
2017-04-11T11:36:05.971Z,6.00
2017-04-11T11:37:06.291Z,6.60
2017-04-11T11:38:06.708Z,5.75
2017-04-11T11:39:07.018Z,5.50
2017-04-11T11:40:07.751Z,5.95
2017-04-11T11:41:08.108Z,4.95
2017-04-11T11:42:07.736Z,5.08
2017-04-11T11:43:07.291Z,4.88
2017-04-11T11:44:06.999Z,5.60
2017-04-11T11:45:06.596Z,5.30
2017-04-11T11:46:06.268Z,5.55
2017-04-11T11:47:05.936Z,5.75
2017-04-11T11:48:06.205Z,5.53
2017-04-11T11:49:05.860Z,5.47
2017-04-11T11:50:06.249Z,4.70
2017-04-11T11:51:05.815Z,4.60
2017-04-11T11:52:05.767Z,5.18
2017-04-11T11:53:05.327Z,4.65
2017-04-11T11:54:04.933Z,5.47
2017-04-11T11:55:04.538Z,5.20
2017-04-11T11:56:04.291Z,4.62
2017-04-11T11:57:03.863Z,5.85
2017-04-11T11:58:03.420Z,6.08
2017-04-11T11:59:03.383Z,6.00
2017-04-11T12:00:03.301Z,5.30
2017-04-11T12:01:03.223Z,6.07
2017-04-11T12:02:02.796Z,6.55
2017-04-11T12:03:02.353Z,5.82
2017-04-11T12:04:03.096Z,6.47
2017-04-11T12:05:02.687Z,5.62
2017-04-11T12:06:02.207Z,5.57
2017-04-11T12:07:01.847Z,5.65
2017-04-11T12:08:01.475Z,5.98
2017-04-11T12:09:01.190Z,5.37
2017-04-11T12:10:01.784Z,5.03
2017-04-11T12:11:01.776Z,5.95
2017-04-11T12:12:01.379Z,5.22
2017-04-11T12:13:01.023Z,5.42
2017-04-11T12:14:01.342Z,5.03
2017-04-11T12:15:02.020Z,4.63
2017-04-11T12:16:01.578Z,5.17
2017-04-11T12:17:01.192Z,5.22
2017-04-11T12:18:00.859Z,5.58
2017-04-11T12:19:01.432Z,5.78
2017-04-11T12:20:01.149Z,5.52
2017-04-11T12:21:00.692Z,5.43
2017-04-11T12:22:00.264Z,5.85
2017-04-11T12:22:59.924Z,5.87
2017-04-11T12:24:00.239Z,5.48
2017-04-11T12:25:00.222Z,5.68
2017-04-11T12:25:59.834Z,5.65
2017-04-11T12:26:59.382Z,5.73
2017-04-11T12:27:59.010Z,5.85
2017-04-11T12:28:58.621Z,6.33
2017-04-11T12:29:58.608Z,6.00
2017-04-11T12:30:58.204Z,6.03
2017-04-11T12:31:57.739Z,5.30
2017-04-11T12:32:57.319Z,5.65
2017-04-11T12:33:56.943Z,5.58
2017-04-11T12:34:56.505Z,5.55
2017-04-11T12:35:56.139Z,5.68
2017-04-11T12:36:56.183Z,6.17
2017-04-11T12:37:55.787Z,6.35
2017-04-11T12:38:55.344Z,5.32
2017-04-11T12:39:54.955Z,5.90
2017-04-11T12:40:54.691Z,5.57
2017-04-11T12:41:54.367Z,5.27
2017-04-11T12:42:53.948Z,5.15
2017-04-11T12:43:53.584Z,4.90
2017-04-11T12:44:53.180Z,5.00
2017-04-11T12:45:53.223Z,5.75
2017-04-11T12:46:52.951Z,5.63
2017-04-11T12:47:52.630Z,5.45
2017-04-11T12:48:52.274Z,5.63
2017-04-11T12:49:51.839Z,5.37
2017-04-11T12:50:51.417Z,5.20
2017-04-11T12:51:50.987Z,5.85
2017-04-11T12:52:50.627Z,5.25
2017-04-11T12:53:50.311Z,5.62
2017-04-11T12:54:50.256Z,6.25
2017-04-11T12:55:50.186Z,5.78
2017-04-11T12:56:49.745Z,5.90
2017-04-11T12:57:49.293Z,5.88
2017-04-11T12:58:49.276Z,6.45
2017-04-11T12:59:48.829Z,6.48
2017-04-11T13:00:48.559Z,6.08
2017-04-11T13:01:48.112Z,6.02
2017-04-11T13:02:47.679Z,6.27
2017-04-11T13:03:47.357Z,6.80
2017-04-11T13:04:46.932Z,5.87
2017-04-11T13:05:46.492Z,6.05
2017-04-11T13:06:46.144Z,7.50
2017-04-11T13:07:45.742Z,6.23
2017-04-11T13:08:45.496Z,5.58
2017-04-11T13:09:45.058Z,5.90
2017-04-11T13:10:45.063Z,5.98